Time;durP1;ratioP1;P1;durP2;ratioP2;P2;SDS_P1;SDS_P2;PMS_P1;PMS_P2;Temp;Humidity;BMP_temperature;BMP_pressure;BME280_temperature;BME280_humidity;BME280_pressure;Samples;Min_cycle;Max_cycle;Signal;HPM_P1;HPM_P2
2024/03/24 00:03:28;;;;;;;10.90;7.40;;;;;;;3.76;80.55;97807.70;226562;1274;22543;-75
2024/03/24 00:08:32;;;;;;;8.90;6.60;;;;;;;3.75;80.39;97799.10;226528;1274;25301;-75
2024/03/24 00:13:35;;;;;;;9.40;6.70;;;;;;;3.73;80.51;97788.33;226627;1274;23011;-75
2024/03/24 00:18:36;;;;;;;8.90;6.40;;;;;;;3.70;80.73;97783.67;226454;1273;24858;-75
2024/03/24 00:23:39;;;;;;;8.40;6.00;;;;;;;3.68;80.73;97779.33;226546;1271;24101;-74
2024/03/24 00:28:41;;;;;;;9.90;6.40;;;;;;;3.69;81.02;97775.60;226574;1274;22547;-75
2024/03/24 00:33:42;;;;;;;11.20;6.70;;;;;;;3.72;81.18;97769.14;226613;1264;22598;-74
2024/03/24 00:38:44;;;;;;;9.60;6.30;;;;;;;3.76;81.32;97752.28;226552;1274;23077;-74
2024/03/24 00:43:49;;;;;;;10.40;6.60;;;;;;;3.80;81.13;97745.73;226726;1274;24242;-75
2024/03/24 00:48:52;;;;;;;10.90;6.60;;;;;;;3.83;81.26;97737.40;226563;1272;23661;-75
2024/03/24 00:53:54;;;;;;;12.60;8.10;;;;;;;3.82;80.83;97720.02;226485;1274;22541;-75
2024/03/24 00:58:56;;;;;;;12.80;7.90;;;;;;;3.78;81.09;97706.55;226500;1272;22549;-75
2024/03/24 01:03:58;;;;;;;13.50;8.80;;;;;;;3.74;81.16;97701.64;226546;1251;24881;-75
2024/03/24 01:08:59;;;;;;;12.90;9.20;;;;;;;3.70;80.98;97698.27;226595;1274;22562;-74
2024/03/24 01:14:02;;;;;;;13.10;9.70;;;;;;;3.63;81.27;97687.11;226573;1274;22562;-75
2024/03/24 01:19:03;;;;;;;18.70;12.00;;;;;;;3.53;81.29;97684.55;226564;1274;22557;-74
2024/03/24 01:24:05;;;;;;;18.40;12.50;;;;;;;3.41;81.57;97679.86;226549;1274;22594;-75
2024/03/24 01:29:08;;;;;;;19.00;13.80;;;;;;;3.29;81.56;97679.16;226551;1271;22544;-74
2024/03/24 01:34:09;;;;;;;23.00;14.70;;;;;;;3.18;81.68;97675.88;226609;1274;22538;-75
2024/03/24 01:39:11;;;;;;;23.90;15.60;;;;;;;3.08;81.90;97678.04;226613;1274;22546;-75
2024/03/24 01:44:13;;;;;;;24.20;15.40;;;;;;;2.96;82.26;97680.54;226615;1274;22526;-75
2024/03/24 01:49:15;;;;;;;25.00;16.70;;;;;;;2.86;82.24;97690.25;226616;1272;22564;-74
2024/03/24 01:54:18;;;;;;;26.90;19.00;;;;;;;2.74;82.52;97702.63;226596;1271;22531;-75
2024/03/24 01:59:20;;;;;;;26.10;17.80;;;;;;;2.64;82.63;97703.00;226658;1271;22962;-75
2024/03/24 02:04:21;;;;;;;26.90;18.30;;;;;;;2.55;82.67;97701.54;226615;1274;22680;-74
2024/03/24 02:09:23;;;;;;;32.60;23.00;;;;;;;2.47;82.71;97715.62;226533;1272;22549;-75
2024/03/24 02:14:26;;;;;;;34.20;25.00;;;;;;;2.41;82.89;97721.90;226589;1274;22539;-75
2024/03/24 02:19:28;;;;;;;39.10;27.00;;;;;;;2.43;83.18;97722.98;226569;1274;22546;-75
2024/03/24 02:24:30;;;;;;;42.40;28.50;;;;;;;2.50;83.32;97728.98;226561;1274;22608;-74
2024/03/24 02:29:31;;;;;;;40.00;28.30;;;;;;;2.63;83.34;97728.52;226592;1273;22691;-74
2024/03/24 02:34:33;;;;;;;42.50;28.70;;;;;;;2.76;83.53;97723.39;226457;1274;22584;-75
2024/03/24 02:39:35;;;;;;;29.70;20.50;;;;;;;2.88;83.69;97725.27;226590;1270;22531;-75
2024/03/24 02:44:38;;;;;;;27.10;19.60;;;;;;;2.99;83.65;97732.95;226384;1273;219884;-75
2024/03/24 02:49:40;;;;;;;21.30;14.90;;;;;;;3.11;83.49;97727.08;226710;1272;24119;-76
2024/03/24 02:54:42;;;;;;;27.80;19.90;;;;;;;3.19;83.32;97727.23;226621;1270;22556;-74
2024/03/24 02:59:43;;;;;;;31.20;19.80;;;;;;;3.27;83.34;97721.39;226624;1274;25291;-74
2024/03/24 03:04:45;;;;;;;32.30;21.50;;;;;;;3.33;83.11;97720.01;226430;1274;23567;-75
2024/03/24 03:09:47;;;;;;;30.90;21.30;;;;;;;3.38;83.28;97716.31;226519;1274;22556;-75
2024/03/24 03:14:49;;;;;;;25.60;17.70;;;;;;;3.41;83.26;97698.90;226578;1264;22565;-74
2024/03/24 03:19:51;;;;;;;26.20;16.40;;;;;;;3.41;83.06;97688.25;226591;1273;22551;-74
2024/03/24 03:24:52;;;;;;;24.10;17.20;;;;;;;3.37;82.87;97693.11;226488;1274;25119;-75
2024/03/24 03:29:54;;;;;;;22.50;17.30;;;;;;;3.30;83.02;97691.78;226539;1272;24225;-75
2024/03/24 03:34:56;;;;;;;22.70;16.20;;;;;;;3.22;82.98;97699.27;226573;1272;22994;-75
2024/03/24 03:39:58;;;;;;;25.40;17.40;;;;;;;3.18;82.97;97697.57;226591;1270;22549;-75
2024/03/24 03:45:00;;;;;;;26.70;17.70;;;;;;;3.23;83.13;97696.42;226623;1271;22548;-74
2024/03/24 03:50:02;;;;;;;23.00;16.30;;;;;;;3.28;83.37;97695.34;226607;1274;22534;-75
2024/03/24 03:55:11;;;;;;;21.80;16.50;;;;;;;3.30;83.06;97689.73;226629;1273;22603;-74
2024/03/24 04:00:13;;;;;;;22.70;17.00;;;;;;;3.33;82.89;97692.92;226519;1267;22736;-75
2024/03/24 04:05:15;;;;;;;23.90;18.00;;;;;;;3.36;83.16;97691.16;226561;1274;22550;-74
2024/03/24 04:10:17;;;;;;;25.70;19.00;;;;;;;3.41;82.99;97691.09;226558;1273;22527;-75
2024/03/24 04:15:19;;;;;;;28.60;20.50;;;;;;;3.45;83.19;97682.29;226632;1270;22554;-74
2024/03/24 04:20:22;;;;;;;28.80;20.60;;;;;;;3.49;83.27;97679.52;226487;1274;22550;-75
2024/03/24 04:25:24;;;;;;;26.70;19.20;;;;;;;3.51;82.76;97685.64;226589;1274;22545;-74
2024/03/24 04:30:26;;;;;;;21.90;16.50;;;;;;;3.51;82.86;97687.56;226519;1273;22535;-74
2024/03/24 04:35:28;;;;;;;20.70;14.60;;;;;;;3.54;83.17;97681.09;226568;1270;22557;-74
2024/03/24 04:40:29;;;;;;;17.20;13.40;;;;;;;3.58;82.88;97672.83;226542;1264;22602;-74
2024/03/24 04:45:31;;;;;;;16.50;12.80;;;;;;;3.62;82.83;97667.29;226547;1274;22554;-74
2024/03/24 04:50:33;;;;;;;17.70;12.60;;;;;;;3.68;82.84;97650.63;226516;1273;24418;-75
2024/03/24 04:55:35;;;;;;;16.70;13.00;;;;;;;3.73;83.09;97646.73;226535;1274;22566;-73
2024/03/24 05:00:37;;;;;;;16.30;12.00;;;;;;;3.76;82.73;97644.63;226552;1273;22572;-73
2024/03/24 05:05:45;;;;;;;14.00;10.60;;;;;;;3.75;82.58;97658.98;226532;1273;22543;-73
2024/03/24 05:10:46;;;;;;;16.40;11.20;;;;;;;3.69;82.53;97668.16;226528;1266;22551;-74
2024/03/24 05:15:51;;;;;;;14.20;11.50;;;;;;;3.65;82.68;97669.08;226571;1274;22576;-74
2024/03/24 05:20:53;;;;;;;13.80;10.20;;;;;;;3.65;82.81;97671.30;226542;1273;23139;-74
2024/03/24 05:25:55;;;;;;;17.50;9.90;;;;;;;3.66;83.07;97678.19;226558;1269;22560;-74
2024/03/24 05:30:57;;;;;;;12.40;9.40;;;;;;;3.67;82.93;97676.73;226547;1273;25561;-73
2024/03/24 05:36:03;;;;;;;12.10;8.70;;;;;;;3.68;82.79;97671.04;226553;1270;25465;-73
2024/03/24 05:41:07;;;;;;;16.50;11.80;;;;;;;3.70;82.76;97670.52;226544;1270;22629;-73
2024/03/24 05:46:08;;;;;;;16.40;11.60;;;;;;;3.71;83.05;97671.44;226533;1273;22640;-73
2024/03/24 05:51:10;;;;;;;15.50;11.50;;;;;;;3.72;83.20;97676.05;226513;1267;24333;-73
2024/03/24 05:56:13;;;;;;;16.00;12.40;;;;;;;3.78;83.18;97681.86;226535;1272;23277;-73
2024/03/24 06:01:16;;;;;;;18.60;13.10;;;;;;;3.81;83.10;97687.41;226495;1274;22600;-73
2024/03/24 06:06:18;;;;;;;20.50;15.80;;;;;;;3.87;83.14;97686.06;226520;1273;22611;-73
2024/03/24 06:11:20;;;;;;;25.80;21.80;;;;;;;3.96;83.44;97684.54;226522;1268;22697;-74
2024/03/24 06:16:22;;;;;;;18.90;14.60;;;;;;;4.06;83.18;97681.98;226553;1267;22546;-74
2024/03/24 06:21:23;;;;;;;20.80;13.70;;;;;;;4.15;83.21;97679.29;226574;1267;22594;-73
2024/03/24 06:26:25;;;;;;;17.60;12.60;;;;;;;4.23;83.20;97675.98;226494;1274;22549;-74
2024/03/24 06:31:27;;;;;;;16.90;12.40;;;;;;;4.29;83.05;97677.88;226609;1271;22574;-73
2024/03/24 06:36:29;;;;;;;19.40;12.30;;;;;;;4.35;83.19;97684.81;226595;1267;22566;-74
2024/03/24 06:41:31;;;;;;;15.80;12.00;;;;;;;4.45;82.77;97691.34;226594;1271;22686;-74
2024/03/24 06:46:33;;;;;;;17.20;12.30;;;;;;;4.51;82.77;97700.83;226602;1271;22578;-75
2024/03/24 06:51:34;;;;;;;17.20;12.50;;;;;;;4.56;82.83;97706.23;226460;1270;22563;-74
2024/03/24 06:56:38;;;;;;;17.80;12.50;;;;;;;4.65;82.90;97716.89;226553;1267;22553;-74
2024/03/24 07:01:40;;;;;;;13.10;10.30;;;;;;;4.77;82.85;97732.59;226595;1270;22534;-74
2024/03/24 07:06:41;;;;;;;13.50;9.40;;;;;;;4.81;82.53;97738.86;226572;1267;22578;-74
2024/03/24 07:11:43;;;;;;;14.60;9.30;;;;;;;4.76;82.09;97737.77;226574;1270;22554;-74
2024/03/24 07:16:45;;;;;;;13.40;9.60;;;;;;;4.70;82.11;97741.98;226580;1272;22543;-74
2024/03/24 07:21:47;;;;;;;13.20;7.90;;;;;;;4.67;82.39;97741.80;226558;1269;24347;-76
2024/03/24 07:26:49;;;;;;;9.40;7.60;;;;;;;4.51;81.51;97736.98;226541;1273;23052;-74
2024/03/24 07:31:50;;;;;;;11.00;7.00;;;;;;;4.29;81.36;97747.54;226560;1273;24324;-74
2024/03/24 07:36:52;;;;;;;8.90;6.70;;;;;;;4.07;81.49;97753.56;226576;1261;22583;-74
2024/03/24 07:41:55;;;;;;;8.10;6.60;;;;;;;3.83;81.55;97758.77;226535;1270;22579;-74
2024/03/24 07:46:57;;;;;;;10.10;7.90;;;;;;;3.69;81.74;97764.59;226595;1270;22569;-75
2024/03/24 07:51:59;;;;;;;10.30;7.80;;;;;;;3.58;82.20;97761.40;226567;1271;22596;-75
2024/03/24 07:57:01;;;;;;;8.60;7.30;;;;;;;3.46;82.17;97762.57;226506;1274;22548;-75
2024/03/24 08:02:03;;;;;;;7.90;6.60;;;;;;;3.42;82.60;97752.02;226547;1270;22576;-74
2024/03/24 08:07:05;;;;;;;6.70;6.00;;;;;;;3.61;82.93;97748.27;226543;1271;22545;-75
2024/03/24 08:12:07;;;;;;;8.90;7.00;;;;;;;3.91;83.28;97739.99;226557;1271;22630;-74
2024/03/24 08:17:09;;;;;;;7.90;6.20;;;;;;;4.23;83.03;97745.03;226580;1271;22538;-75
2024/03/24 08:22:11;;;;;;;10.90;8.70;;;;;;;4.50;83.06;97740.43;226561;1269;22545;-74
2024/03/24 08:27:13;;;;;;;8.70;7.60;;;;;;;4.95;83.48;97744.55;226545;1270;23032;-75
2024/03/24 08:32:16;;;;;;;8.10;6.60;;;;;;;5.56;83.63;97742.31;226542;1270;22541;-74
2024/03/24 08:37:18;;;;;;;7.50;6.70;;;;;;;6.05;83.29;97731.34;226594;1251;22588;-74
2024/03/24 08:42:21;;;;;;;9.40;8.20;;;;;;;6.40;82.30;97731.73;226560;1273;22629;-75
2024/03/24 08:47:24;;;;;;;6.90;6.00;;;;;;;6.78;81.98;97732.48;226539;1270;22592;-74
2024/03/24 08:52:26;;;;;;;9.50;7.20;;;;;;;6.98;80.44;97729.11;226516;1270;22564;-75
2024/03/24 08:57:27;;;;;;;8.80;7.60;;;;;;;6.72;79.28;97735.58;226596;1274;22963;-75
2024/03/24 09:02:29;;;;;;;10.90;9.60;;;;;;;6.53;79.69;97737.86;226561;1274;22545;-74
2024/03/24 09:07:31;;;;;;;12.50;11.20;;;;;;;6.41;79.35;97735.65;226498;1270;22493;-75
2024/03/24 09:12:33;;;;;;;12.20;10.00;;;;;;;6.25;79.69;97740.10;226614;1270;22541;-74
2024/03/24 09:17:35;;;;;;;13.60;10.40;;;;;;;6.00;79.48;97743.36;226586;1268;24297;-75
2024/03/24 09:22:37;;;;;;;3.80;3.30;;;;;;;5.58;79.66;97770.32;226547;1271;22634;-74
2024/03/24 09:27:39;;;;;;;2.70;2.20;;;;;;;4.99;78.49;97776.26;226642;1268;22577;-77
2024/03/24 09:32:42;;;;;;;2.90;2.60;;;;;;;4.24;78.37;97766.35;226593;1271;23016;-76
2024/03/24 09:37:43;;;;;;;7.00;4.50;;;;;;;3.85;79.45;97762.92;226623;1274;22542;-75
2024/03/24 09:42:50;;;;;;;4.50;4.00;;;;;;;3.81;79.91;97752.72;226670;1271;22565;-76
2024/03/24 09:47:53;;;;;;;4.80;3.90;;;;;;;3.85;80.47;97738.36;226654;1270;22549;-75
2024/03/24 09:52:55;;;;;;;5.10;3.90;;;;;;;4.01;80.62;97738.04;226517;1263;22552;-75
2024/03/24 09:57:58;;;;;;;3.80;3.50;;;;;;;4.19;81.04;97730.13;226525;1267;25034;-75
2024/03/24 10:03:12;;;;;;;4.10;3.70;;;;;;;4.42;81.03;97726.86;226537;1274;22542;-76
2024/03/24 10:08:14;;;;;;;4.50;3.80;;;;;;;4.54;81.20;97711.01;226491;1270;22583;-75
2024/03/24 10:13:16;;;;;;;3.80;2.90;;;;;;;4.71;81.39;97706.89;226594;1270;22974;-75
2024/03/24 10:18:18;;;;;;;3.40;2.90;;;;;;;4.99;81.48;97699.14;226611;1272;22584;-75
2024/03/24 10:23:20;;;;;;;4.40;4.00;;;;;;;5.28;81.28;97697.66;226422;1274;22548;-74
2024/03/24 10:28:25;;;;;;;4.30;3.20;;;;;;;5.60;80.87;97692.19;226594;1273;22546;-73
2024/03/24 10:33:27;;;;;;;3.80;3.40;;;;;;;5.90;80.68;97690.30;226796;1272;22529;-75
2024/03/24 10:38:29;;;;;;;4.40;3.90;;;;;;;6.18;81.04;97684.87;226613;1268;24554;-74
2024/03/24 10:43:31;;;;;;;3.80;3.40;;;;;;;6.34;80.86;97672.36;226529;1268;23110;-75
2024/03/24 10:48:35;;;;;;;5.80;4.80;;;;;;;6.36;80.31;97673.87;226604;1274;23306;-74
2024/03/24 10:53:37;;;;;;;5.50;4.90;;;;;;;6.50;80.98;97670.80;226560;1269;22536;-74
2024/03/24 10:58:40;;;;;;;6.80;5.50;;;;;;;6.72;81.33;97670.41;226533;1271;22695;-73
2024/03/24 11:03:44;;;;;;;5.30;4.40;;;;;;;7.03;81.43;97665.68;226560;1272;26292;-73
2024/03/24 11:08:46;;;;;;;4.10;3.70;;;;;;;7.23;80.15;97657.14;226403;1271;25407;-74
2024/03/24 11:13:50;;;;;;;4.20;3.40;;;;;;;7.44;79.69;97646.77;226589;1271;23099;-75
2024/03/24 11:18:52;;;;;;;5.00;3.10;;;;;;;7.66;78.94;97639.78;226592;1251;25329;-74
2024/03/24 11:23:58;;;;;;;5.30;3.10;;;;;;;7.88;78.58;97637.02;226610;1271;22550;-74
2024/03/24 11:29:00;;;;;;;3.70;3.10;;;;;;;8.11;78.00;97624.83;226615;1263;22554;-74
2024/03/24 11:34:05;;;;;;;3.60;2.70;;;;;;;8.68;78.08;97623.29;226663;1274;22586;-75
2024/03/24 11:39:11;;;;;;;3.30;2.80;;;;;;;9.30;76.35;97615.39;226587;1274;22556;-75
2024/03/24 11:44:13;;;;;;;3.20;2.50;;;;;;;9.63;73.94;97611.45;226664;1271;25349;-74
2024/03/24 11:49:15;;;;;;;3.70;2.30;;;;;;;9.52;72.90;97606.35;226627;1271;22546;-74
2024/03/24 11:54:17;;;;;;;4.30;2.30;;;;;;;9.33;71.39;97597.88;226618;1269;22545;-75
2024/03/24 11:59:21;;;;;;;3.10;2.10;;;;;;;9.25;71.08;97603.02;226548;1268;22542;-75
2024/03/24 12:04:24;;;;;;;3.50;2.30;;;;;;;9.06;70.29;97601.48;226520;1274;22538;-75
2024/03/24 12:09:28;;;;;;;3.50;2.30;;;;;;;9.12;71.06;97593.02;226680;1271;22687;-75
2024/03/24 12:14:32;;;;;;;2.70;2.40;;;;;;;9.62;71.30;97587.88;226601;1271;23421;-77
2024/03/24 12:19:37;;;;;;;2.90;2.10;;;;;;;9.97;70.56;97587.95;226624;1270;22553;-75
2024/03/24 12:24:39;;;;;;;3.30;2.50;;;;;;;10.04;69.37;97580.77;226586;1274;25904;-74
2024/03/24 12:29:51;;;;;;;1.90;1.60;;;;;;;9.84;68.24;97578.34;226571;1268;25325;-74
2024/03/24 12:34:57;;;;;;;3.90;2.10;;;;;;;9.33;67.39;97580.96;226611;1267;22534;-75
2024/03/24 12:39:59;;;;;;;2.30;1.90;;;;;;;9.01;68.46;97584.85;226607;1272;22542;-75
2024/03/24 12:45:10;;;;;;;2.20;1.90;;;;;;;8.88;68.97;97579.80;226438;1274;24240;-75
2024/03/24 12:50:30;;;;;;;3.10;2.10;;;;;;;8.77;68.81;97574.34;226563;1273;22535;-75
2024/03/24 12:55:47;;;;;;;2.70;2.00;;;;;;;8.66;69.17;97566.02;226596;1272;22526;-75
2024/03/24 13:00:50;;;;;;;3.00;2.30;;;;;;;8.49;69.15;97556.52;226631;1274;22526;-75
2024/03/24 13:05:52;;;;;;;4.30;2.40;;;;;;;8.33;69.65;97564.79;226528;1272;22709;-76
2024/03/24 13:10:57;;;;;;;2.40;2.20;;;;;;;8.37;69.71;97555.52;226655;1274;22532;-75
2024/03/24 13:16:23;;;;;;;3.10;2.40;;;;;;;8.43;69.40;97545.57;226576;1273;22547;-75
2024/03/24 13:21:32;;;;;;;3.60;2.30;;;;;;;8.50;69.18;97546.88;226493;1274;25438;-75
2024/03/24 13:26:36;;;;;;;2.60;1.30;;;;;;;8.59;69.46;97540.31;226556;1274;22570;-75
2024/03/24 13:31:38;;;;;;;4.00;1.90;;;;;;;8.64;67.16;97534.30;226555;1272;23038;-75
2024/03/24 13:36:44;;;;;;;1.80;1.20;;;;;;;8.78;67.39;97526.29;226573;1272;23118;-74
2024/03/24 13:42:27;;;;;;;2.00;1.20;;;;;;;9.06;67.38;97518.36;226592;1271;22574;-75
2024/03/24 13:47:34;;;;;;;2.40;1.30;;;;;;;9.10;65.20;97510.20;226230;1274;22537;-73
2024/03/24 13:52:38;;;;;;;2.30;1.00;;;;;;;9.06;64.67;97503.61;226555;1272;23063;-75
2024/03/24 13:57:42;;;;;;;2.30;1.40;;;;;;;9.31;64.46;97498.82;226608;1272;22581;-75
2024/03/24 14:02:44;;;;;;;1.60;1.00;;;;;;;9.58;63.92;97497.16;226565;1274;23568;-74
2024/03/24 14:07:46;;;;;;;1.50;1.20;;;;;;;9.67;62.87;97498.77;226602;1272;22554;-74
2024/03/24 14:13:10;;;;;;;2.00;1.10;;;;;;;9.84;61.96;97495.43;226577;1270;22564;-75
2024/03/24 14:18:26;;;;;;;1.70;0.80;;;;;;;9.89;61.68;97494.87;226602;1270;22536;-75
2024/03/24 14:23:41;;;;;;;1.80;1.00;;;;;;;10.01;61.02;97490.14;226546;1269;22557;-75
2024/03/24 14:28:45;;;;;;;1.60;1.00;;;;;;;9.94;60.13;97483.42;226488;1272;22596;-76
2024/03/24 14:33:46;;;;;;;1.30;0.90;;;;;;;9.77;60.35;97474.91;226593;1274;22635;-75
2024/03/24 14:39:35;;;;;;;3.10;1.20;;;;;;;9.64;61.02;97473.71;226612;1271;22555;-75
2024/03/24 14:44:55;;;;;;;2.60;1.80;;;;;;;9.42;61.05;97470.73;226191;1274;286369;-75
2024/03/24 14:49:57;;;;;;;;;;;;;;;9.28;61.21;97468.31;226531;1272;22549;-75
2024/03/24 14:54:59;;;;;;;2.70;1.90;;;;;;;9.29;61.63;97465.23;226646;1272;22574;-75
2024/03/24 15:00:13;;;;;;;2.80;1.90;;;;;;;9.35;62.05;97456.99;226550;1274;22590;-75
2024/03/24 15:05:16;;;;;;;2.80;2.00;;;;;;;9.32;61.65;97457.70;226555;1271;25245;-75
2024/03/24 15:10:18;;;;;;;3.30;1.70;;;;;;;9.21;62.01;97451.56;226648;1272;22564;-75
2024/03/24 15:15:20;;;;;;;2.00;1.40;;;;;;;9.15;62.05;97447.91;226653;1271;25260;-74
2024/03/24 15:20:22;;;;;;;2.50;1.30;;;;;;;9.09;62.10;97442.95;226452;1266;22537;-75
2024/03/24 15:25:24;;;;;;;2.40;1.40;;;;;;;8.97;61.87;97439.10;226579;1271;26017;-75
2024/03/24 15:30:26;;;;;;;2.70;1.30;;;;;;;8.89;61.77;97438.23;226622;1272;23369;-74
2024/03/24 15:35:27;;;;;;;3.00;1.60;;;;;;;8.95;61.35;97437.56;226610;1274;22668;-75
2024/03/24 15:40:29;;;;;;;1.50;1.20;;;;;;;9.09;61.13;97435.88;226556;1271;22563;-75
2024/03/24 15:45:31;;;;;;;2.10;1.30;;;;;;;9.18;60.38;97435.63;226594;1272;23798;-74
2024/03/24 15:50:33;;;;;;;2.40;1.20;;;;;;;9.12;59.79;97433.30;226605;1268;25955;-75
2024/03/24 15:55:49;;;;;;;2.90;1.00;;;;;;;8.95;59.80;97437.02;226593;1272;24217;-76
2024/03/24 16:01:02;;;;;;;1.70;1.10;;;;;;;8.73;60.15;97436.61;226613;1271;22541;-75
2024/03/24 16:06:07;;;;;;;2.80;1.40;;;;;;;8.52;60.24;97438.35;226575;1274;25560;-75
2024/03/24 16:11:15;;;;;;;3.70;2.60;;;;;;;8.32;60.51;97446.78;226589;1274;24220;-75
2024/03/24 16:16:18;;;;;;;0.90;0.90;;;;;;;8.15;60.92;97448.10;226576;1274;22590;-75
2024/03/24 16:21:47;;;;;;;1.30;0.80;;;;;;;7.98;60.53;97451.80;226580;1272;22563;-75
2024/03/24 16:26:49;;;;;;;3.10;1.50;;;;;;;7.78;60.87;97445.59;226624;1274;22530;-75
2024/03/24 16:31:51;;;;;;;2.40;1.50;;;;;;;7.59;61.24;97448.91;226447;1274;23124;-75
2024/03/24 16:36:55;;;;;;;3.70;1.40;;;;;;;7.42;62.05;97453.05;226625;1271;22586;-75
2024/03/24 16:41:57;;;;;;;3.30;1.50;;;;;;;7.26;62.63;97452.78;226577;1274;22546;-76
2024/03/24 16:46:59;;;;;;;2.10;1.30;;;;;;;7.08;63.01;97448.92;226636;1274;22537;-75
2024/03/24 16:52:01;;;;;;;3.40;2.00;;;;;;;6.93;63.08;97452.30;226524;1274;22544;-75
2024/03/24 16:57:03;;;;;;;4.30;2.30;;;;;;;6.79;63.64;97451.57;226538;1274;22541;-74
2024/03/24 17:02:06;;;;;;;3.60;2.50;;;;;;;6.65;63.89;97455.60;226526;1269;25329;-74
2024/03/24 17:07:07;;;;;;;4.10;2.50;;;;;;;6.56;63.93;97452.85;226652;1260;22559;-74
2024/03/24 17:12:10;;;;;;;3.80;2.00;;;;;;;6.53;63.93;97453.64;226580;1272;22524;-75
2024/03/24 17:17:12;;;;;;;2.80;1.70;;;;;;;6.53;64.63;97454.02;226788;1271;22537;-75
2024/03/24 17:22:13;;;;;;;3.50;2.00;;;;;;;6.54;64.91;97458.96;226525;1274;25803;-74
2024/03/24 17:27:15;;;;;;;3.30;2.10;;;;;;;6.54;65.44;97460.66;226586;1272;22552;-74
2024/03/24 17:32:17;;;;;;;4.20;2.40;;;;;;;6.53;65.19;97466.19;226626;1273;22554;-75
2024/03/24 17:37:20;;;;;;;3.80;2.20;;;;;;;6.50;65.40;97463.65;226512;1272;22558;-74
2024/03/24 17:42:22;;;;;;;4.30;2.40;;;;;;;6.41;65.19;97475.65;226634;1272;22553;-74
2024/03/24 17:47:24;;;;;;;1.50;1.10;;;;;;;6.28;64.88;97482.77;226480;1272;25915;-73
2024/03/24 17:52:27;;;;;;;2.00;1.30;;;;;;;6.10;64.81;97483.73;226639;1273;26094;-74
2024/03/24 17:57:29;;;;;;;3.00;1.60;;;;;;;5.91;65.18;97487.95;226569;1271;22547;-75
2024/03/24 18:02:31;;;;;;;4.50;1.90;;;;;;;5.74;65.29;97492.04;226568;1274;22565;-74
2024/03/24 18:12:53;;;;;;;6.00;2.90;;;;;;;5.43;65.93;97498.69;226535;1274;22546;-75
2024/03/24 18:17:55;;;;;;;3.20;1.90;;;;;;;5.29;66.35;97505.12;226619;1271;22549;-74
2024/03/24 18:22:57;;;;;;;2.20;1.40;;;;;;;5.17;66.82;97508.02;226599;1273;24231;-74
2024/03/24 18:28:00;;;;;;;1.80;1.30;;;;;;;5.06;66.94;97503.85;226374;1274;23051;-74
2024/03/24 18:33:03;;;;;;;1.90;1.10;;;;;;;4.96;67.03;97505.98;226533;1274;24668;-74
2024/03/24 18:38:07;;;;;;;3.10;1.50;;;;;;;4.85;67.23;97502.45;226569;1274;24504;-74
2024/03/24 18:43:09;;;;;;;2.40;1.60;;;;;;;4.77;67.39;97501.27;226622;1272;22735;-75
2024/03/24 18:48:11;;;;;;;4.40;2.50;;;;;;;4.72;67.69;97505.79;226552;1260;22554;-73
2024/03/24 18:53:13;;;;;;;5.00;2.70;;;;;;;4.68;68.14;97501.64;226528;1269;22645;-75
2024/03/24 18:58:16;;;;;;;6.00;3.10;;;;;;;4.66;68.03;97501.56;226555;1273;22546;-75
2024/03/24 19:03:18;;;;;;;5.60;3.10;;;;;;;4.62;68.28;97502.01;226553;1274;22634;-76
2024/03/24 19:08:20;;;;;;;5.30;3.50;;;;;;;4.55;68.66;97504.21;226437;1273;22543;-74
2024/03/24 19:13:22;;;;;;;5.50;3.40;;;;;;;4.48;68.73;97507.40;226454;1274;22568;-74
2024/03/24 19:18:25;;;;;;;6.00;4.10;;;;;;;4.38;68.97;97509.27;226597;1272;22598;-76
2024/03/24 19:23:28;;;;;;;8.90;4.70;;;;;;;4.28;69.07;97510.63;226490;1272;22567;-75
2024/03/24 19:28:31;;;;;;;9.10;5.00;;;;;;;4.20;69.81;97509.45;226506;1274;22610;-74
2024/03/24 19:33:33;;;;;;;15.70;7.30;;;;;;;4.13;70.42;97514.48;226389;1274;22567;-76
2024/03/24 19:38:35;;;;;;;15.10;8.00;;;;;;;4.06;70.34;97511.66;226450;1274;22565;-76
2024/03/24 19:43:37;;;;;;;14.80;8.50;;;;;;;3.99;71.19;97508.95;226573;1272;22658;-75
2024/03/24 19:48:40;;;;;;;14.60;8.80;;;;;;;3.97;72.06;97510.84;226573;1274;22573;-74
2024/03/24 19:53:42;;;;;;;14.30;7.60;;;;;;;3.93;72.39;97509.17;226568;1274;22543;-76
2024/03/24 19:58:44;;;;;;;13.50;7.20;;;;;;;3.87;72.53;97508.37;226586;1274;24211;-75
2024/03/24 20:03:46;;;;;;;10.10;6.10;;;;;;;3.81;73.00;97510.20;226616;1274;22542;-75
2024/03/24 20:08:48;;;;;;;11.30;6.40;;;;;;;3.75;73.49;97510.73;226581;1274;22560;-76
2024/03/24 20:13:52;;;;;;;10.90;6.90;;;;;;;3.70;74.08;97507.58;226421;1273;24254;-76
2024/03/24 20:18:54;;;;;;;11.50;6.40;;;;;;;3.67;74.44;97510.30;226566;1274;22569;-75
2024/03/24 20:23:56;;;;;;;10.10;5.50;;;;;;;3.67;74.70;97508.29;226508;1274;22552;-75
2024/03/24 20:28:58;;;;;;;10.80;6.60;;;;;;;3.70;75.02;97507.27;226608;1274;22558;-75
2024/03/24 20:33:59;;;;;;;11.10;6.30;;;;;;;3.69;75.30;97501.01;226549;1273;22559;-75
2024/03/24 20:39:03;;;;;;;11.10;6.50;;;;;;;3.65;75.11;97499.10;226575;1274;24656;-74
2024/03/24 20:44:05;;;;;;;10.60;6.40;;;;;;;3.67;75.43;97494.03;226542;1274;22552;-75
2024/03/24 20:49:13;;;;;;;10.60;6.00;;;;;;;3.70;75.56;97480.70;226883;1274;22582;-75
2024/03/24 20:54:16;;;;;;;7.90;5.50;;;;;;;3.73;75.69;97475.02;226582;1273;22529;-75
2024/03/24 20:59:17;;;;;;;9.20;5.70;;;;;;;3.77;75.70;97473.76;226590;1272;24614;-75
2024/03/24 21:04:19;;;;;;;10.40;6.20;;;;;;;3.83;75.98;97475.84;226516;1271;24200;-75
2024/03/24 21:09:21;;;;;;;9.40;6.20;;;;;;;3.88;75.85;97470.67;226537;1271;23442;-76
2024/03/24 21:14:23;;;;;;;11.80;6.40;;;;;;;3.95;75.77;97470.30;226555;1274;22545;-74
2024/03/24 21:19:25;;;;;;;9.30;5.40;;;;;;;4.00;75.90;97466.11;226536;1274;22574;-76
2024/03/24 21:24:27;;;;;;;10.80;6.10;;;;;;;4.08;75.79;97466.34;226440;1274;22546;-75
2024/03/24 21:29:29;;;;;;;9.90;6.30;;;;;;;4.13;75.82;97463.45;226527;1273;22692;-75
2024/03/24 21:34:32;;;;;;;9.90;5.60;;;;;;;4.18;75.55;97459.85;226523;1271;22707;-75
2024/03/24 21:44:54;;;;;;;12.20;6.20;;;;;;;4.24;75.72;97453.52;226609;1274;22596;-75
2024/03/24 21:49:56;;;;;;;10.90;5.40;;;;;;;4.27;75.52;97451.54;226575;1273;22569;-75
2024/03/24 21:54:58;;;;;;;10.50;5.90;;;;;;;4.29;75.66;97447.63;226641;1267;22540;-74
2024/03/24 22:00:00;;;;;;;9.20;5.70;;;;;;;4.28;75.57;97450.11;226573;1270;23332;-74
2024/03/24 22:05:02;;;;;;;10.20;5.80;;;;;;;4.27;75.74;97448.20;226553;1270;22659;-74
2024/03/24 22:10:11;;;;;;;11.60;7.00;;;;;;;4.22;75.69;97441.45;226588;1274;22588;-74
2024/03/24 22:15:21;;;;;;;11.10;6.90;;;;;;;4.14;75.61;97434.52;226542;1275;25342;-75
2024/03/24 22:20:23;;;;;;;13.00;7.50;;;;;;;4.06;75.54;97435.91;226556;1272;22549;-76
2024/03/24 22:25:26;;;;;;;10.60;7.00;;;;;;;3.94;75.69;97426.77;226568;1273;22639;-75
2024/03/24 22:30:28;;;;;;;12.60;7.60;;;;;;;3.83;75.80;97414.30;226570;1272;22720;-74
2024/03/24 22:35:30;;;;;;;11.70;6.90;;;;;;;3.74;75.87;97416.73;226549;1273;22657;-73
2024/03/24 22:40:32;;;;;;;10.70;6.40;;;;;;;3.66;76.10;97412.03;226568;1270;22909;-73
2024/03/24 22:45:34;;;;;;;12.60;7.90;;;;;;;3.62;76.42;97414.05;226539;1267;24333;-74
2024/03/24 22:50:36;;;;;;;11.20;6.40;;;;;;;3.63;76.49;97422.04;226523;1271;22542;-74
2024/03/24 22:55:38;;;;;;;11.00;6.10;;;;;;;3.69;76.75;97414.55;226583;1270;22546;-74
2024/03/24 23:00:40;;;;;;;9.60;5.30;;;;;;;3.76;76.87;97415.20;226543;1272;22542;-74
2024/03/24 23:05:42;;;;;;;9.60;4.90;;;;;;;3.83;76.93;97414.11;226551;1271;22547;-74
2024/03/24 23:10:44;;;;;;;7.90;4.70;;;;;;;3.92;77.00;97415.95;226590;1273;24197;-74
2024/03/24 23:15:49;;;;;;;6.90;4.50;;;;;;;3.99;77.01;97414.60;226565;1274;22649;-74
2024/03/24 23:20:51;;;;;;;7.00;4.50;;;;;;;4.06;76.96;97417.03;226535;1272;23189;-74
2024/03/24 23:25:53;;;;;;;6.20;4.40;;;;;;;4.11;77.27;97418.31;226429;1273;22546;-74
2024/03/24 23:30:55;;;;;;;6.60;4.30;;;;;;;4.15;77.09;97411.21;226651;1273;22571;-74
2024/03/24 23:35:57;;;;;;;6.60;4.00;;;;;;;4.18;77.19;97409.02;226568;1270;22599;-74
2024/03/24 23:40:58;;;;;;;5.60;3.70;;;;;;;4.17;77.19;97405.98;226554;1274;22748;-73
2024/03/24 23:46:01;;;;;;;6.20;4.50;;;;;;;4.11;77.13;97407.02;226569;1273;22673;-74